createdAt,value
2018-12-10T00:02:05.941Z,1.50
2018-12-10T00:04:33.469Z,1.40
2018-12-10T00:07:01.091Z,1.23
2018-12-10T00:09:28.553Z,1.20
2018-12-10T00:11:56.011Z,0.90
2018-12-10T00:14:23.496Z,0.90
2018-12-10T00:16:50.932Z,0.70
2018-12-10T00:19:18.403Z,0.70
2018-12-10T00:21:45.828Z,0.83
2018-12-10T00:24:13.307Z,0.67
2018-12-10T00:26:40.891Z,0.70
2018-12-10T00:29:08.395Z,0.70
2018-12-10T00:31:35.855Z,0.80
2018-12-10T00:34:03.269Z,0.90
2018-12-10T00:36:30.827Z,1.00
2018-12-10T00:38:58.230Z,0.70
2018-12-10T00:41:25.722Z,0.77
2018-12-10T00:43:53.198Z,0.73
2018-12-10T00:46:22.544Z,0.70
2018-12-10T00:48:50.064Z,0.70
2018-12-10T00:51:17.541Z,0.70
2018-12-10T00:53:44.949Z,0.70
2018-12-10T00:56:12.478Z,0.63
2018-12-10T00:58:39.984Z,0.60
2018-12-10T01:01:07.407Z,0.67
2018-12-10T01:03:34.843Z,1.60
2018-12-10T01:06:02.291Z,0.70
2018-12-10T01:08:29.765Z,0.87
2018-12-10T01:10:57.355Z,0.83
2018-12-10T01:13:24.796Z,0.90
2018-12-10T01:15:52.233Z,0.90
2018-12-10T01:18:19.653Z,0.90
2018-12-10T01:20:47.082Z,1.10
2018-12-10T01:23:14.529Z,0.90
2018-12-10T01:25:41.973Z,1.80
2018-12-10T01:28:09.362Z,1.00
2018-12-10T01:30:36.831Z,0.80
2018-12-10T01:33:04.259Z,1.00
2018-12-10T01:35:32.080Z,1.43
2018-12-10T01:37:59.582Z,1.10
2018-12-10T01:40:27.075Z,1.20
2018-12-10T01:42:54.491Z,1.10
2018-12-10T01:45:21.883Z,1.37
2018-12-10T01:47:49.471Z,1.20
2018-12-10T01:50:16.932Z,1.37
2018-12-10T01:52:44.328Z,1.30
2018-12-10T01:55:11.754Z,1.33
2018-12-10T01:57:39.164Z,1.20
2018-12-10T02:00:07.248Z,1.70
2018-12-10T02:02:34.900Z,1.30
2018-12-10T02:05:02.373Z,1.60
2018-12-10T02:07:29.784Z,1.20
2018-12-10T02:09:57.172Z,1.00
2018-12-10T02:12:24.593Z,1.13
2018-12-10T02:14:52.057Z,1.30
2018-12-10T02:17:19.490Z,1.37
2018-12-10T02:19:46.962Z,1.60
2018-12-10T02:22:14.367Z,1.30
2018-12-10T02:24:42.032Z,1.53
2018-12-10T02:27:09.425Z,1.43
2018-12-10T02:29:36.848Z,1.37
2018-12-10T02:32:04.371Z,1.43
2018-12-10T02:34:31.863Z,1.23
2018-12-10T02:36:59.281Z,1.40
2018-12-10T02:39:26.880Z,1.77
2018-12-10T02:41:54.398Z,1.80
2018-12-10T02:44:21.780Z,1.50
2018-12-10T02:46:49.478Z,1.87
2018-12-10T02:49:16.873Z,1.80
2018-12-10T02:51:44.431Z,1.90
2018-12-10T02:54:11.897Z,2.00
2018-12-10T02:56:39.413Z,2.00
2018-12-10T02:59:06.801Z,1.80
2018-12-10T03:01:34.283Z,1.83
2018-12-10T03:04:01.811Z,2.00
2018-12-10T03:06:29.267Z,1.70
2018-12-10T03:08:56.802Z,1.93
2018-12-10T03:11:24.235Z,2.20
2018-12-10T03:13:52.279Z,2.00
2018-12-10T03:16:19.739Z,1.53
2018-12-10T03:18:47.171Z,1.93
2018-12-10T03:21:14.613Z,2.17
2018-12-10T03:23:42.063Z,2.00
2018-12-10T03:26:09.527Z,1.90
2018-12-10T03:28:36.990Z,1.80
2018-12-10T03:31:04.373Z,1.83
2018-12-10T03:33:31.787Z,1.70
2018-12-10T03:35:59.185Z,1.50
2018-12-10T03:38:26.664Z,1.70
2018-12-10T03:40:54.129Z,1.50
2018-12-10T03:43:21.612Z,1.80
2018-12-10T03:45:49.135Z,1.37
2018-12-10T03:48:16.571Z,1.47
2018-12-10T03:50:43.963Z,1.40
2018-12-10T03:53:11.405Z,1.40
2018-12-10T03:55:38.787Z,1.40
2018-12-10T03:58:06.269Z,1.27
2018-12-10T04:00:33.727Z,1.40
2018-12-10T04:03:01.177Z,1.50
2018-12-10T04:05:28.613Z,1.23
2018-12-10T04:07:56.004Z,1.40
2018-12-10T04:10:23.569Z,1.30
2018-12-10T04:12:51.011Z,1.40
2018-12-10T04:15:18.484Z,1.40
2018-12-10T04:17:45.959Z,1.40
2018-12-10T04:20:13.407Z,1.23
2018-12-10T04:22:40.842Z,1.30
2018-12-10T04:25:08.320Z,1.20
2018-12-10T04:27:35.750Z,1.30
2018-12-10T04:30:03.291Z,1.20
2018-12-10T04:32:30.684Z,1.10
2018-12-10T04:34:58.127Z,1.10
2018-12-10T04:37:25.684Z,1.37
2018-12-10T04:39:53.128Z,1.20
2018-12-10T04:42:20.560Z,1.37
2018-12-10T04:44:47.988Z,1.57
2018-12-10T04:47:15.456Z,1.30
2018-12-10T04:49:42.861Z,1.40
2018-12-10T04:52:10.307Z,1.20
2018-12-10T04:54:38.404Z,1.83
2018-12-10T04:57:05.998Z,1.30
2018-12-10T04:59:33.428Z,1.43
2018-12-10T05:02:00.903Z,1.50
2018-12-10T05:04:28.348Z,1.07
2018-12-10T05:06:55.816Z,1.20
2018-12-10T05:09:23.263Z,1.30
2018-12-10T05:11:50.698Z,1.43
2018-12-10T05:14:18.152Z,1.20
2018-12-10T05:16:45.557Z,1.40
2018-12-10T05:19:13.158Z,1.30
2018-12-10T05:21:40.581Z,1.50
2018-12-10T05:24:08.002Z,1.20
2018-12-10T05:26:35.438Z,1.40
2018-12-10T05:29:02.920Z,1.30
2018-12-10T05:31:30.351Z,1.30
2018-12-10T05:33:57.791Z,1.63
2018-12-10T05:36:25.344Z,1.30
2018-12-10T05:38:52.835Z,1.30
2018-12-10T05:41:20.327Z,1.30
2018-12-10T05:43:47.824Z,1.30
2018-12-10T05:46:15.491Z,1.37
2018-12-10T05:48:42.943Z,1.33
2018-12-10T05:51:10.399Z,1.03
2018-12-10T05:53:37.842Z,1.30
2018-12-10T05:56:05.447Z,1.30
2018-12-10T05:58:33.036Z,1.30
2018-12-10T06:01:00.432Z,1.20
2018-12-10T06:03:27.962Z,1.30
2018-12-10T06:05:55.600Z,1.47
2018-12-10T06:08:23.051Z,1.20
2018-12-10T06:10:50.484Z,1.20
2018-12-10T06:13:17.991Z,1.60
2018-12-10T06:15:45.479Z,1.20
2018-12-10T06:18:12.887Z,1.00
2018-12-10T06:20:40.302Z,1.13
2018-12-10T06:23:07.719Z,1.43
2018-12-10T06:25:35.195Z,1.00
2018-12-10T06:28:02.634Z,1.10
2018-12-10T06:30:30.041Z,1.23
2018-12-10T06:32:57.564Z,1.30
2018-12-10T06:35:25.013Z,1.20
2018-12-10T06:37:52.486Z,1.40
2018-12-10T06:40:19.956Z,1.20
2018-12-10T06:42:48.343Z,1.10
2018-12-10T06:45:15.774Z,1.10
2018-12-10T06:47:43.320Z,1.10
2018-12-10T06:50:10.888Z,1.00
2018-12-10T06:52:38.487Z,1.10
2018-12-10T06:55:06.496Z,1.07
2018-12-10T06:57:34.182Z,1.10
2018-12-10T07:00:01.872Z,1.13
2018-12-10T07:02:29.328Z,1.10
2018-12-10T07:04:56.948Z,1.30
2018-12-10T07:07:24.401Z,1.10
2018-12-10T07:09:51.820Z,1.10
2018-12-10T07:12:19.235Z,1.20
2018-12-10T07:14:46.620Z,1.10
2018-12-10T07:17:14.019Z,1.17
2018-12-10T07:19:41.439Z,1.07
2018-12-10T07:22:08.884Z,2.10
2018-12-10T07:24:36.355Z,1.17
2018-12-10T07:27:03.752Z,1.20
2018-12-10T07:29:31.288Z,1.30
2018-12-10T07:31:58.813Z,1.20
2018-12-10T07:34:26.313Z,1.20
2018-12-10T07:36:53.696Z,1.17
2018-12-10T07:39:21.127Z,1.30
2018-12-10T07:41:48.609Z,1.20
2018-12-10T07:44:16.064Z,1.43
2018-12-10T07:46:43.528Z,2.60
2018-12-10T07:49:10.908Z,1.30
2018-12-10T07:51:38.400Z,1.20
2018-12-10T07:54:05.852Z,1.27
2018-12-10T07:56:33.352Z,1.17
2018-12-10T07:59:00.837Z,1.17
2018-12-10T08:01:28.375Z,1.30
2018-12-10T08:03:55.801Z,1.17
2018-12-10T08:06:23.298Z,1.30
2018-12-10T08:08:50.710Z,1.20
2018-12-10T08:11:18.172Z,1.10
2018-12-10T08:13:45.691Z,1.00
2018-12-10T08:16:13.078Z,1.00
2018-12-10T08:18:40.509Z,1.00
2018-12-10T08:21:07.984Z,0.90
2018-12-10T08:23:35.407Z,0.93
2018-12-10T08:26:02.930Z,1.00
2018-12-10T08:28:30.447Z,1.43
2018-12-10T08:30:58.006Z,0.93
2018-12-10T08:33:25.472Z,0.90
2018-12-10T08:35:52.931Z,1.00
2018-12-10T08:38:20.416Z,0.90
2018-12-10T08:40:47.881Z,0.90
2018-12-10T08:43:15.309Z,0.90
2018-12-10T08:45:42.727Z,1.33
2018-12-10T08:48:10.533Z,1.17
2018-12-10T08:50:38.123Z,1.00
2018-12-10T08:53:05.543Z,1.00
2018-12-10T08:55:33.126Z,1.10
2018-12-10T08:58:00.591Z,1.07
2018-12-10T09:00:28.047Z,1.00
2018-12-10T09:02:55.436Z,1.00
2018-12-10T09:05:22.938Z,1.10
2018-12-10T09:07:50.414Z,1.20
2018-12-10T09:10:17.895Z,1.50
2018-12-10T09:12:47.102Z,1.10
2018-12-10T09:15:14.871Z,1.00
2018-12-10T09:17:42.377Z,1.20
2018-12-10T09:20:09.945Z,1.10
2018-12-10T09:22:37.415Z,1.10
2018-12-10T09:25:05.277Z,1.23
2018-12-10T09:27:32.810Z,1.10
2018-12-10T09:30:00.223Z,0.90
2018-12-10T09:32:27.770Z,1.03
2018-12-10T09:34:55.313Z,1.00
2018-12-10T09:37:22.776Z,1.20
2018-12-10T09:39:50.211Z,1.10
2018-12-10T09:42:17.695Z,1.40
2018-12-10T09:44:45.210Z,1.30
2018-12-10T09:47:12.709Z,1.30
2018-12-10T09:49:40.184Z,1.30
2018-12-10T09:52:07.623Z,1.40
2018-12-10T09:54:35.511Z,1.40
2018-12-10T09:57:03.156Z,1.83
2018-12-10T09:59:30.716Z,7.47
2018-12-10T10:01:58.205Z,3.60
2018-12-10T10:04:25.784Z,1.13
2018-12-10T10:06:53.416Z,1.20
2018-12-10T10:09:21.024Z,1.20
2018-12-10T10:11:48.516Z,1.30
2018-12-10T10:14:16.068Z,1.30
2018-12-10T10:16:43.651Z,1.37
2018-12-10T10:19:11.069Z,1.30
2018-12-10T10:21:38.541Z,1.30
2018-12-10T10:24:06.010Z,1.33
2018-12-10T10:26:33.489Z,1.37
2018-12-10T10:29:01.026Z,1.20
2018-12-10T10:31:28.638Z,1.40
2018-12-10T10:33:56.248Z,1.57
2018-12-10T10:36:23.783Z,1.37
2018-12-10T10:38:51.318Z,1.47
2018-12-10T10:41:18.763Z,1.30
2018-12-10T10:43:46.182Z,1.40
2018-12-10T10:46:13.664Z,1.23
2018-12-10T10:48:41.075Z,1.43
2018-12-10T10:51:08.511Z,3.17
2018-12-10T10:53:35.942Z,1.30
2018-12-10T10:56:03.465Z,1.50
2018-12-10T10:58:31.113Z,1.20
2018-12-10T11:01:03.785Z,1.30
2018-12-10T11:03:36.773Z,1.30
2018-12-10T11:06:04.357Z,1.57
2018-12-10T11:08:31.919Z,1.43
2018-12-10T11:10:59.343Z,1.40
2018-12-10T11:13:26.863Z,1.50
2018-12-10T11:15:54.320Z,1.40
2018-12-10T11:18:21.727Z,1.40
2018-12-10T11:20:49.237Z,2.07
2018-12-10T11:23:16.672Z,1.17
2018-12-10T11:25:44.071Z,1.23
2018-12-10T11:28:11.675Z,1.40
2018-12-10T11:30:39.133Z,1.80
2018-12-10T11:33:06.586Z,1.30
2018-12-10T11:35:33.981Z,1.30
2018-12-10T11:38:01.434Z,1.40
2018-12-10T11:40:29.093Z,1.30
2018-12-10T11:42:56.636Z,1.30
2018-12-10T11:45:24.357Z,1.30
2018-12-10T11:47:51.737Z,1.50
2018-12-10T11:50:19.315Z,1.57
2018-12-10T11:52:47.175Z,1.40
2018-12-10T11:55:14.645Z,2.33
2018-12-10T11:57:42.106Z,1.70
2018-12-10T12:00:10.709Z,2.13
2018-12-10T12:02:38.273Z,1.97
2018-12-10T12:05:05.817Z,3.00
2018-12-10T12:07:33.349Z,2.00
2018-12-10T12:10:00.832Z,1.90
2018-12-10T12:12:28.591Z,2.40
2018-12-10T12:14:56.102Z,1.70
2018-12-10T12:17:23.510Z,1.40
2018-12-10T12:19:51.064Z,1.50
2018-12-10T12:22:18.536Z,2.50
2018-12-10T12:24:46.000Z,4.90
2018-12-10T12:27:13.507Z,2.10
2018-12-10T12:29:41.000Z,1.30
2018-12-10T12:32:08.430Z,1.60
2018-12-10T12:34:35.903Z,1.50
2018-12-10T12:37:03.447Z,1.40
2018-12-10T12:39:30.899Z,1.60
2018-12-10T12:41:58.364Z,1.70
2018-12-10T12:44:25.864Z,1.83
2018-12-10T12:46:53.347Z,2.03
2018-12-10T12:49:20.872Z,2.70
2018-12-10T12:51:48.383Z,2.67
2018-12-10T12:54:15.876Z,3.20
2018-12-10T12:56:43.447Z,3.07
2018-12-10T12:59:10.914Z,2.30
2018-12-10T13:01:38.357Z,2.20
2018-12-10T13:04:05.793Z,2.20
2018-12-10T13:06:33.222Z,2.47
2018-12-10T13:09:00.658Z,2.00
2018-12-10T13:11:28.196Z,2.00
2018-12-10T13:13:55.572Z,2.50
2018-12-10T13:16:23.072Z,2.30
2018-12-10T13:18:50.563Z,2.60
2018-12-10T13:21:17.995Z,2.03
2018-12-10T13:23:45.443Z,1.80
2018-12-10T13:26:13.122Z,2.30
2018-12-10T13:28:40.550Z,2.40
2018-12-10T13:31:07.968Z,2.10
2018-12-10T13:33:35.582Z,2.13
2018-12-10T13:36:03.133Z,2.43
2018-12-10T13:38:30.573Z,2.20
2018-12-10T13:40:58.005Z,2.20
2018-12-10T13:43:25.835Z,2.03
2018-12-10T13:45:53.367Z,2.40
2018-12-10T13:48:20.859Z,10.03
2018-12-10T13:50:48.274Z,2.10
2018-12-10T13:53:15.740Z,3.00
2018-12-10T13:55:43.242Z,2.20
2018-12-10T13:58:10.642Z,4.40
2018-12-10T14:00:38.074Z,2.27
2018-12-10T14:03:06.943Z,2.30
2018-12-10T14:05:34.439Z,2.33
2018-12-10T14:08:01.860Z,2.50
2018-12-10T14:10:29.319Z,2.37
2018-12-10T14:12:56.735Z,2.40
2018-12-10T14:15:24.178Z,2.20
2018-12-10T14:17:51.684Z,2.30
2018-12-10T14:20:19.127Z,2.67
2018-12-10T14:22:46.569Z,2.60
2018-12-10T14:25:22.951Z,2.60
2018-12-10T14:27:50.569Z,2.53
2018-12-10T14:30:18.257Z,3.10
2018-12-10T14:32:45.728Z,2.80
2018-12-10T14:35:13.253Z,2.60
2018-12-10T14:37:40.885Z,2.93
2018-12-10T14:40:08.480Z,2.47
2018-12-10T14:42:41.116Z,2.50
2018-12-10T14:45:08.550Z,2.20
2018-12-10T14:47:36.048Z,2.47
2018-12-10T14:50:03.710Z,2.60
2018-12-10T14:52:31.141Z,2.83
2018-12-10T14:54:58.651Z,3.23
2018-12-10T14:57:26.117Z,4.23
2018-12-10T14:59:53.595Z,2.97
2018-12-10T15:02:21.163Z,3.13
2018-12-10T15:04:48.629Z,3.57
2018-12-10T15:07:16.134Z,3.47
2018-12-10T15:09:44.172Z,3.70
2018-12-10T15:12:11.677Z,3.80
2018-12-10T15:14:39.323Z,3.47
2018-12-10T15:17:07.015Z,3.90
2018-12-10T15:19:34.707Z,4.00
2018-12-10T15:22:02.170Z,3.90
2018-12-10T15:24:29.627Z,4.07
2018-12-10T15:26:57.445Z,3.67
2018-12-10T15:29:24.967Z,4.30
2018-12-10T15:31:52.408Z,4.33
2018-12-10T15:34:20.191Z,4.40
2018-12-10T15:36:47.627Z,4.33
2018-12-10T15:39:15.058Z,4.57
2018-12-10T15:41:42.563Z,4.77
2018-12-10T15:44:10.328Z,4.23
2018-12-10T15:46:38.104Z,3.73
2018-12-10T15:49:05.571Z,4.43
2018-12-10T15:51:33.037Z,3.37
2018-12-10T15:54:00.627Z,3.63
2018-12-10T15:56:28.102Z,3.73
2018-12-10T15:58:55.765Z,4.00
2018-12-10T16:01:23.401Z,3.57
2018-12-10T16:03:50.860Z,3.87
2018-12-10T16:06:18.313Z,3.70
2018-12-10T16:08:45.760Z,4.10
2018-12-10T16:11:13.668Z,3.17
2018-12-10T16:13:41.194Z,3.63
2018-12-10T16:16:08.639Z,4.67
2018-12-10T16:18:36.158Z,3.50
2018-12-10T16:21:03.831Z,3.77
2018-12-10T16:23:31.330Z,3.70
2018-12-10T16:25:58.933Z,3.43
2018-12-10T16:28:26.375Z,3.60
2018-12-10T16:30:54.063Z,3.50
2018-12-10T16:33:21.611Z,3.63
2018-12-10T16:35:49.431Z,3.93
2018-12-10T16:38:17.287Z,3.63
2018-12-10T16:40:45.096Z,5.63
2018-12-10T16:43:12.650Z,6.17
2018-12-10T16:45:40.461Z,7.33
2018-12-10T16:48:09.092Z,5.60
2018-12-10T16:50:36.561Z,5.50
2018-12-10T16:53:04.191Z,3.40
2018-12-10T16:55:31.772Z,3.03
2018-12-10T16:57:59.313Z,3.10
2018-12-10T17:00:26.778Z,3.57
2018-12-10T17:02:54.225Z,3.00
2018-12-10T17:05:26.213Z,2.93
2018-12-10T17:07:53.691Z,3.43
2018-12-10T17:10:21.170Z,3.77
2018-12-10T17:12:48.652Z,3.70
2018-12-10T17:15:16.224Z,4.50
2018-12-10T17:17:43.748Z,4.30
2018-12-10T17:20:11.239Z,4.43
2018-12-10T17:22:38.658Z,4.10
2018-12-10T17:25:06.338Z,4.23
2018-12-10T17:27:33.981Z,4.33
2018-12-10T17:30:01.455Z,4.20
2018-12-10T17:32:28.860Z,3.77
2018-12-10T17:34:56.342Z,3.92
2018-12-10T17:37:24.092Z,3.70
2018-12-10T17:39:51.559Z,3.70
2018-12-10T17:42:19.013Z,3.63
2018-12-10T17:44:47.777Z,3.17
2018-12-10T17:47:15.275Z,2.57
2018-12-10T17:49:43.297Z,2.90
2018-12-10T17:52:10.877Z,3.03
2018-12-10T17:54:38.384Z,3.10
2018-12-10T17:57:05.858Z,3.30
2018-12-10T17:59:33.344Z,3.00
2018-12-10T18:02:00.864Z,2.97
2018-12-10T18:04:28.280Z,3.30
2018-12-10T18:06:55.696Z,3.57
2018-12-10T18:09:23.125Z,3.70
2018-12-10T18:11:50.682Z,3.90
2018-12-10T18:14:18.136Z,3.97
2018-12-10T18:16:45.606Z,4.67
2018-12-10T18:19:13.251Z,4.73
2018-12-10T18:21:40.842Z,3.90
2018-12-10T18:24:08.288Z,4.20
2018-12-10T18:26:35.731Z,3.80
2018-12-10T18:29:03.238Z,4.97
2018-12-10T18:31:30.756Z,3.83
2018-12-10T18:33:58.502Z,4.10
2018-12-10T18:36:26.032Z,5.60
2018-12-10T18:38:53.539Z,7.03
2018-12-10T18:41:21.188Z,5.17
2018-12-10T18:43:48.619Z,7.60
2018-12-10T18:46:16.342Z,7.20
2018-12-10T18:48:43.828Z,4.97
2018-12-10T18:51:11.397Z,5.60
2018-12-10T18:53:39.822Z,4.77
2018-12-10T18:56:07.400Z,4.90
2018-12-10T18:58:34.859Z,4.90
2018-12-10T19:01:02.389Z,6.17
2018-12-10T19:03:29.908Z,5.27
2018-12-10T19:05:57.431Z,4.50
2018-12-10T19:08:25.171Z,5.03
2018-12-10T19:10:52.637Z,3.73
2018-12-10T19:13:20.213Z,3.67
2018-12-10T19:15:47.980Z,5.13
2018-12-10T19:18:15.390Z,4.30
2018-12-10T19:20:42.845Z,4.43
2018-12-10T19:23:10.277Z,10.23
2018-12-10T19:25:37.760Z,12.13
2018-12-10T19:28:05.432Z,16.80
2018-12-10T19:30:32.937Z,8.63
2018-12-10T19:33:00.451Z,4.50
2018-12-10T19:35:28.142Z,6.73
2018-12-10T19:37:55.701Z,6.20
2018-12-10T19:40:23.356Z,7.07
2018-12-10T19:42:50.882Z,5.30
2018-12-10T19:45:18.283Z,8.23
2018-12-10T19:47:45.847Z,5.63
2018-12-10T19:50:13.403Z,10.43
2018-12-10T19:52:41.615Z,5.53
2018-12-10T19:55:09.142Z,5.93
2018-12-10T19:57:36.630Z,4.13
2018-12-10T20:00:04.380Z,11.57
2018-12-10T20:02:32.003Z,5.80
2018-12-10T20:04:59.610Z,5.20
2018-12-10T20:07:27.297Z,4.33
2018-12-10T20:09:54.819Z,5.73
2018-12-10T20:12:22.355Z,6.20
2018-12-10T20:14:49.867Z,4.33
2018-12-10T20:17:17.329Z,4.30
2018-12-10T20:19:45.370Z,5.70
2018-12-10T20:22:12.973Z,5.00
2018-12-10T20:24:40.653Z,4.20
2018-12-10T20:27:08.403Z,4.60
2018-12-10T20:29:35.955Z,4.37
2018-12-10T20:32:03.629Z,4.07
2018-12-10T20:34:31.613Z,4.53
2018-12-10T20:36:59.471Z,4.30
2018-12-10T20:39:27.134Z,4.60
2018-12-10T20:41:54.828Z,5.03
2018-12-10T20:44:22.444Z,4.20
2018-12-10T20:46:49.981Z,4.23
2018-12-10T20:49:17.764Z,3.73
2018-12-10T20:51:45.282Z,5.30
2018-12-10T20:54:12.972Z,4.47
2018-12-10T20:56:40.565Z,5.13
2018-12-10T20:59:08.158Z,4.00
2018-12-10T21:01:35.737Z,3.97
2018-12-10T21:04:03.216Z,4.30
2018-12-10T21:06:35.170Z,4.60
2018-12-10T21:09:04.557Z,3.87
2018-12-10T21:11:32.099Z,4.37
2018-12-10T21:13:59.667Z,3.93
2018-12-10T21:16:27.337Z,4.23
2018-12-10T21:18:55.003Z,4.53
2018-12-10T21:21:22.541Z,4.00
2018-12-10T21:23:50.550Z,4.00
2018-12-10T21:26:18.140Z,5.87
2018-12-10T21:28:45.756Z,4.00
2018-12-10T21:31:13.547Z,3.80
2018-12-10T21:33:41.051Z,4.13
2018-12-10T21:36:08.529Z,4.57
2018-12-10T21:38:36.213Z,4.27
2018-12-10T21:41:03.892Z,3.67
2018-12-10T21:43:31.508Z,4.07
2018-12-10T21:45:59.087Z,3.77
2018-12-10T21:48:26.640Z,3.63
2018-12-10T21:50:54.089Z,3.90
2018-12-10T21:53:22.089Z,3.40
2018-12-10T21:55:53.783Z,3.80
2018-12-10T21:58:22.994Z,3.63
2018-12-10T22:00:50.469Z,3.60
2018-12-10T22:03:17.931Z,3.13
2018-12-10T22:05:45.348Z,3.60
2018-12-10T22:08:12.797Z,4.00
2018-12-10T22:10:40.305Z,3.60
2018-12-10T22:13:07.803Z,4.07
2018-12-10T22:15:35.299Z,3.43
2018-12-10T22:18:02.739Z,3.27
2018-12-10T22:20:30.135Z,3.60
2018-12-10T22:22:57.806Z,3.40
2018-12-10T22:25:25.316Z,3.40
2018-12-10T22:27:52.753Z,3.67
2018-12-10T22:30:20.228Z,3.30
2018-12-10T22:32:47.724Z,3.30
2018-12-10T22:35:15.167Z,3.40
2018-12-10T22:37:42.644Z,3.27
2018-12-10T22:40:10.246Z,3.47
2018-12-10T22:42:37.769Z,3.10
2018-12-10T22:45:05.477Z,3.50
2018-12-10T22:47:32.884Z,3.13
2018-12-10T22:50:00.579Z,3.30
2018-12-10T22:52:28.088Z,3.10
2018-12-10T22:54:55.523Z,3.45
2018-12-10T22:57:23.318Z,3.20
2018-12-10T22:59:50.768Z,3.60
2018-12-10T23:02:18.436Z,3.03
2018-12-10T23:04:45.890Z,3.23
2018-12-10T23:07:13.430Z,3.23
2018-12-10T23:09:40.933Z,2.93
2018-12-10T23:12:08.355Z,3.20
2018-12-10T23:14:35.776Z,2.90
2018-12-10T23:17:03.616Z,3.37
2018-12-10T23:19:31.069Z,2.90
2018-12-10T23:21:58.575Z,3.33
2018-12-10T23:24:26.051Z,3.17
2018-12-10T23:26:53.539Z,2.80
2018-12-10T23:29:20.951Z,2.73
2018-12-10T23:31:48.641Z,2.83
2018-12-10T23:34:16.842Z,3.03
2018-12-10T23:36:44.282Z,2.70
2018-12-10T23:39:11.757Z,3.00
2018-12-10T23:41:39.312Z,3.00
2018-12-10T23:44:06.889Z,2.80
2018-12-10T23:46:34.311Z,2.80
2018-12-10T23:49:02.015Z,2.80
2018-12-10T23:51:29.437Z,2.57
2018-12-10T23:53:56.878Z,2.50
2018-12-10T23:56:24.335Z,2.67
2018-12-10T23:58:51.808Z,2.23
